December 2, 2023
|
Ocean Breeze Athletic Complex (Banked) - Staten Island, NY
|
200m (Banked)
ICON KEY: NCAA DII Prov IC4A/ECAC

Women's 500 Meters

Top↑
PL NAME YEAR TEAM TIME TIME TIME
1 Leah Anderson   Atalanta NYC 1:11.97 1:04.06 1:04.06
2 Brittany Ogunmokun   CPTC - Tracksmith 1:12.37 1:23.23 1:14.55
3 Chloe Lucas SR-4 Maryland-Eastern Shore 1:13.69 56.01 1:04.11
4 Nora Haugen SO-2 St. John's 1:13.89 1:33.11 1:21.28
5 Kaira Brown SR-4 Georgetown 1:14.21 1:01.60 1:05.31
6 KC Ashiogwu JR-3 Georgetown 1:14.85 1:17.10 1:33.57
7 Nia Holden SR-4 St. John's 1:15.41 1:27.48 1:15.41
8 Leilani Robinson SO-2 St. John's 1:16.05 1:27.46 59.32
9 Laila Cottom FR-1 Temple 1:18.57 1:08.36 58.15
10 Victoria Vidolova FR-1 Georgetown 1:18.60 1:29.61 1:28.04
11 Maddie Kelso-Heap FR-1 St. John's 1:18.73 1:20.31 1:38.42
12 Mackenzi Evans JR-3 Maryland-Eastern Shore 1:19.23 1:11.31 1:29.53
13 Brianna Benton SO-2 Coppin State 1:19.28 57.09 56.29
14 Charlotte Crum   CPTC - Tracksmith 1:20.48 1:29.34 1:37.38
15 Shy-Ann Campbell SR-4 Maryland-Eastern Shore 1:20.64 56.45 1:34.35
16 Zamira Ysaac SR-4 St. John's 1:22.02 1:38.43 57.42
17 Alexia Massoud SO-2 George Washington 1:22.07 1:12.23 1:16.33
18 Kayla DeSousa FR-1 George Washington 1:24.37 1:33.65 1:27.75
19 Emilee Becker SR-4 Washington and Lee 1:24.47 1:45.59 59.98
20 Lucie Graziano JR-3 Washington and Lee 1:24.49 1:10.13 1:16.05
21 Ava Srinivasan SO-2 Sacred Heart 1:24.65 1:43.28 1:08.57
22 Olivia Suter JR-3 Sacred Heart 1:25.39 1:48.45 1:40.76
23 Sofia Petrucelli FR-1 Washington and Lee 1:25.55 1:29.83 1:12.72
24 Nicole Parise SO-2 Sacred Heart 1:25.62 1:39.32 1:06.79
25 Madison Breckner JR-3 Sacred Heart 1:25.69 59.99 1:39.40
26 Adekansola Adewami SR-4 Maryland-Eastern Shore 1:26.93 1:00.86 1:49.54
27 Adia Vera JR-3 Washington and Lee 1:27.09 1:46.25 1:26.22
28 Meagan McAndrews FR-1 Sacred Heart 1:28.29 1:01.81 1:39.77
29 Angelina Guerriero JR-3 Staten Island 1:28.61 1:35.70 1:41.91
30 Alexandra Bold FR-1 Sacred Heart 1:30.40 1:17.75 1:12.32
31 Sarah Cawley JR-3 Pratt Institute 1:33.54 1:23.25 1:22.32
32 Finn Powell FR-1 Pratt Institute 1:38.69 1:54.48 1:25.86
33 Kafi Yekinni JR-3 Staten Island 1:48.77 1:18.32 1:57.48
34 Alexa Weinbaum JR-3 Sacred Heart 1:54.59 2:03.76 2:01.47
Women's 500 Meters Section 1
PL NAME YEAR TEAM TIME TIME TIME TIME TIME TIME
1 Leah Anderson   Atalanta NYC 59.02 1:26.37 57.58 1:05.50 1:11.97 51.10
2 Brittany Ogunmokun   CPTC - Tracksmith 51.39 1:01.52 1:10.20 1:02.97 1:12.37 50.66
3 Chloe Lucas SR-4 Maryland-Eastern Shore 1:08.54 1:01.17 1:17.38 1:07.80 1:13.69 1:32.12
4 Nora Haugen SO-2 St. John's 1:12.42 1:13.16 1:30.89 56.16 1:13.89 1:02.07
5 Kaira Brown SR-4 Georgetown 1:30.54 57.15 1:19.41 1:10.50 1:14.21 1:15.70
Women's 500 Meters Section 2
PL NAME YEAR TEAM TIME TIME TIME TIME TIME TIME
6 KC Ashiogwu JR-3 Georgetown 1:20.84 58.39 1:17.85 1:14.85 1:26.83 1:15.60
7 Nia Holden SR-4 St. John's 1:18.43 1:10.89 52.79 1:15.41 1:14.66 1:34.27
8 Leilani Robinson SO-2 St. John's 1:21.38 1:10.73 1:26.70 1:16.05 53.24 1:20.62
10 Victoria Vidolova FR-1 Georgetown 1:31.97 1:13.10 1:09.17 1:18.60 1:37.47 1:12.32
12 Mackenzi Evans JR-3 Maryland-Eastern Shore 1:01.01 57.84 1:02.60 1:19.23 1:08.14 1:04.97
18 Kayla DeSousa FR-1 George Washington 1:09.19 1:03.28 1:49.69 1:24.37 1:48.84 1:31.12
Women's 500 Meters Section 3
PL NAME YEAR TEAM TIME TIME TIME TIME
9 Laila Cottom FR-1 Temple 1:14.65 1:18.57 1:25.65 1:22.50
11 Maddie Kelso-Heap FR-1 St. John's 59.84 1:18.73 55.12 1:38.42
13 Brianna Benton SO-2 Coppin State 58.67 1:19.28 1:29.59 1:05.81
14 Charlotte Crum   CPTC - Tracksmith 1:34.17 1:20.48 1:09.22 1:19.68
17 Alexia Massoud SO-2 George Washington 1:45.05 1:22.07 1:07.30 1:12.23
20 Lucie Graziano JR-3 Washington and Lee 1:21.11 1:24.49 1:27.87 1:27.87
Women's 500 Meters Section 4
PL NAME YEAR TEAM TIME
15 Shy-Ann Campbell SR-4 Maryland-Eastern Shore 1:20.64
19 Emilee Becker SR-4 Washington and Lee 1:24.47
21 Ava Srinivasan SO-2 Sacred Heart 1:24.65
23 Sofia Petrucelli FR-1 Washington and Lee 1:25.55
27 Adia Vera JR-3 Washington and Lee 1:27.09
30 Alexandra Bold FR-1 Sacred Heart 1:30.40
Women's 500 Meters Section 5
PL NAME YEAR TEAM TIME TIME TIME
16 Zamira Ysaac SR-4 St. John's 1:33.51 1:22.02 1:03.98
22 Olivia Suter JR-3 Sacred Heart 1:35.64 1:25.39 1:13.44
25 Madison Breckner JR-3 Sacred Heart 1:15.41 1:25.69 1:35.12
26 Adekansola Adewami SR-4 Maryland-Eastern Shore 1:31.28 1:26.93 1:39.97
28 Meagan McAndrews FR-1 Sacred Heart 1:07.99 1:28.29 1:25.65
Women's 500 Meters Section 6
PL NAME YEAR TEAM TIME
24 Nicole Parise SO-2 Sacred Heart 1:25.62
29 Angelina Guerriero JR-3 Staten Island 1:28.61
31 Sarah Cawley JR-3 Pratt Institute 1:33.54
32 Finn Powell FR-1 Pratt Institute 1:38.69
33 Kafi Yekinni JR-3 Staten Island 1:48.77
34 Alexa Weinbaum JR-3 Sacred Heart 1:54.59